Current Weather

Cranfield

Cranfield, United Kingdom (EGTC)

Report from: Tuesday, July 16, 2024 2:50 PM BST
Current time: Tuesday, July 16, 2024 3:37 PM BST

Nearby weather – Weather history – Daily summaries
Weather forecast

Temperature19.0°C (66.2°F)
Dew point16.0°C (60.8°F)
Winds 8 kts (4.1 m/s, 9.2 mph) Northwest (320°)
Visibility6.2 mi. (10 km)
Clouds Scattered clouds 1,200 ft. (366 m)
Ceiling: Broken clouds 4,800 ft. (1,463 m)
Altimeter29.83 in.Hg (1010 mB)
Relative humidity83 %
Density altitude829 ft. (253 m)
Flight conditions Visual Meteorological Conditions
Raw dataEGTC 161350Z 32008KT 9999 SCT012 BKN048 19/16 Q1010
An error has occurred. This application may no longer respond until reloaded. Reload 🗙